Time;durP1;ratioP1;P1;durP2;ratioP2;P2;SDS_P1;SDS_P2;PMS_P1;PMS_P2;Temp;Humidity;BMP_temperature;BMP_pressure;BME280_temperature;BME280_humidity;BME280_pressure;Samples;Min_cycle;Max_cycle;Signal;HPM_P1;HPM_P2
2023/03/03 00:00:09;;;;;;;49.65;23.38;;;;;;;;;;5091740;28;20052;-78
2023/03/03 00:02:35;;;;;;;49.55;23.05;;;;;;;;;;5095687;28;20051;-78
2023/03/03 00:05:01;;;;;;;62.10;24.33;;;;;;;;;;5095583;28;20830;-78
2023/03/03 00:07:27;;;;;;;51.22;22.42;;;;;;;;;;5075853;28;20056;-78
2023/03/03 00:09:54;;;;;;;48.10;23.17;;;;;;;;;;5078681;28;20136;-78
2023/03/03 00:12:27;;;;;;;42.90;21.50;;;;;;;;;;5091722;28;20401;-78
2023/03/03 00:14:53;;;;;;;44.08;21.58;;;;;;;;;;5079513;28;20521;-78
2023/03/03 00:17:19;;;;;;;40.33;21.17;;;;;;;;;;5087881;28;20052;-78
2023/03/03 00:19:46;;;;;;;43.38;22.48;;;;;;;;;;5091228;28;20048;-78
2023/03/03 00:22:31;;;;;;;47.00;22.63;;;;;;;;;;5074964;28;20048;-77
2023/03/03 00:25:20;;;;;;;46.08;20.25;;;;;;;;;;5079135;28;20489;-78
2023/03/03 00:27:46;;;;;;;45.67;21.67;;;;;;;;;;5065191;28;20044;-78
2023/03/03 00:30:24;;;;;;;49.45;21.65;;;;;;;;;;5089422;28;20056;-78
2023/03/03 00:32:51;;;;;;;98.22;21.05;;;;;;;;;;5087753;28;20097;-78
2023/03/03 00:35:34;;;;;;;53.92;22.50;;;;;;;;;;5078219;28;20105;-78
2023/03/03 00:38:01;;;;;;;59.63;19.85;;;;;;;;;;5087505;28;20079;-78
2023/03/03 00:40:27;;;;;;;60.78;19.38;;;;;;;;;;5080444;28;20457;-78
2023/03/03 00:42:54;;;;;;;54.65;17.92;;;;;;;;;;5086424;28;20044;-78
2023/03/03 00:45:33;;;;;;;76.22;19.73;;;;;;;;;;5083641;28;20037;-78
2023/03/03 00:48:07;;;;;;;68.95;17.17;;;;;;;;;;5075086;28;20045;-78
2023/03/03 00:50:34;;;;;;;114.25;17.80;;;;;;;;;;5085904;28;20494;-78
2023/03/03 00:53:04;;;;;;;156.70;21.13;;;;;;;;;;5095511;28;20405;-77
2023/03/03 00:55:31;;;;;;;55.63;17.52;;;;;;;;;;5095164;28;20581;-78
2023/03/03 00:57:57;;;;;;;81.78;20.13;;;;;;;;;;5095179;28;20452;-78
2023/03/03 01:00:23;;;;;;;73.00;19.35;;;;;;;;;;5093021;28;20044;-78
2023/03/03 01:02:50;;;;;;;102.50;19.98;;;;;;;;;;5094478;28;20048;-78
2023/03/03 01:05:17;;;;;;;161.70;22.05;;;;;;;;;;5095598;28;20090;-78
2023/03/03 01:07:43;;;;;;;310.63;25.15;;;;;;;;;;5093391;28;20061;-78
2023/03/03 01:10:10;;;;;;;177.90;23.38;;;;;;;;;;5087508;28;20040;-78
2023/03/03 01:12:37;;;;;;;82.90;21.92;;;;;;;;;;5093911;28;20036;-77
2023/03/03 01:15:04;;;;;;;165.25;22.63;;;;;;;;;;5082495;28;20506;-78
2023/03/03 01:17:30;;;;;;;238.30;24.38;;;;;;;;;;5093041;28;20045;-78
2023/03/03 01:19:56;;;;;;;215.50;23.48;;;;;;;;;;5093521;28;20044;-78
2023/03/03 01:22:22;;;;;;;191.50;22.63;;;;;;;;;;5100289;28;20498;-78
2023/03/03 01:24:48;;;;;;;132.13;20.63;;;;;;;;;;5081499;28;20041;-78
2023/03/03 01:27:15;;;;;;;178.13;21.95;;;;;;;;;;5088081;28;20044;-78
2023/03/03 01:29:41;;;;;;;100.43;21.42;;;;;;;;;;5090980;28;20092;-78
2023/03/03 01:32:07;;;;;;;168.75;20.83;;;;;;;;;;5093085;28;20051;-78
2023/03/03 01:34:33;;;;;;;85.15;19.55;;;;;;;;;;5084129;28;20514;-78
2023/03/03 01:36:59;;;;;;;140.07;22.00;;;;;;;;;;5085033;28;20043;-78
2023/03/03 01:39:26;;;;;;;169.07;21.48;;;;;;;;;;5086344;28;20048;-78
2023/03/03 01:41:52;;;;;;;88.03;19.58;;;;;;;;;;5081876;28;20059;-78
2023/03/03 01:44:18;;;;;;;99.03;19.58;;;;;;;;;;5079132;28;20363;-78
2023/03/03 01:46:47;;;;;;;194.60;22.23;;;;;;;;;;5081573;28;20505;-78
2023/03/03 01:49:15;;;;;;;203.13;22.25;;;;;;;;;;5085798;28;20052;-78
2023/03/03 01:51:50;;;;;;;121.68;20.38;;;;;;;;;;5080974;28;20448;-78
2023/03/03 01:54:20;;;;;;;194.80;21.73;;;;;;;;;;5074621;28;20044;-78
2023/03/03 01:56:46;;;;;;;140.93;21.55;;;;;;;;;;5092097;28;20040;-78
2023/03/03 01:59:17;;;;;;;137.93;20.88;;;;;;;;;;5090754;28;20486;-78
2023/03/03 02:01:45;;;;;;;119.10;18.48;;;;;;;;;;5093743;28;20123;-78
2023/03/03 02:04:11;;;;;;;130.25;18.40;;;;;;;;;;5095204;28;20044;-78
2023/03/03 02:06:40;;;;;;;126.43;18.45;;;;;;;;;;5092951;28;20055;-78
2023/03/03 02:09:09;;;;;;;234.25;22.23;;;;;;;;;;5086658;28;20437;-78
2023/03/03 02:11:37;;;;;;;157.50;17.88;;;;;;;;;;5075015;28;20049;-78
2023/03/03 02:14:03;;;;;;;161.45;18.45;;;;;;;;;;5085754;28;20112;-78
2023/03/03 02:16:29;;;;;;;159.13;16.92;;;;;;;;;;5083701;28;20044;-78
2023/03/03 02:18:55;;;;;;;208.82;20.30;;;;;;;;;;5060498;28;20040;-78
2023/03/03 02:21:22;;;;;;;206.30;17.67;;;;;;;;;;5086166;28;20044;-77
2023/03/03 02:24:07;;;;;;;128.00;18.58;;;;;;;;;;5088823;28;20055;-78
2023/03/03 02:26:35;;;;;;;284.92;20.23;;;;;;;;;;5072428;28;20041;-78
2023/03/03 02:29:01;;;;;;;292.23;21.67;;;;;;;;;;5085791;28;20044;-78
2023/03/03 02:31:28;;;;;;;214.85;19.92;;;;;;;;;;5085894;28;20055;-77
2023/03/03 02:33:55;;;;;;;133.57;17.27;;;;;;;;;;5082590;28;20047;-77
2023/03/03 02:36:23;;;;;;;251.27;20.58;;;;;;;;;;5063259;28;20056;-78
2023/03/03 02:39:08;;;;;;;174.85;20.75;;;;;;;;;;5075378;28;20045;-78
2023/03/03 02:41:39;;;;;;;193.73;18.75;;;;;;;;;;5076560;28;20105;-77
2023/03/03 02:44:06;;;;;;;171.20;17.52;;;;;;;;;;5078049;28;20062;-78
2023/03/03 02:46:39;;;;;;;221.98;20.27;;;;;;;;;;5092772;28;20127;-78
2023/03/03 02:49:07;;;;;;;269.45;21.80;;;;;;;;;;5081430;28;20048;-78
2023/03/03 02:51:33;;;;;;;351.27;24.95;;;;;;;;;;5081468;28;20041;-78
2023/03/03 02:53:59;;;;;;;165.63;21.25;;;;;;;;;;5081717;28;20052;-78
2023/03/03 02:56:25;;;;;;;206.00;20.17;;;;;;;;;;5081768;28;20114;-78
2023/03/03 02:58:51;;;;;;;266.95;22.52;;;;;;;;;;5082492;28;20044;-77
2023/03/03 03:01:17;;;;;;;284.55;24.65;;;;;;;;;;5096499;28;20098;-78
2023/03/03 03:03:43;;;;;;;244.05;23.52;;;;;;;;;;5096922;28;20047;-78
2023/03/03 03:06:09;;;;;;;350.83;25.27;;;;;;;;;;5095358;28;20059;-78
2023/03/03 03:08:36;;;;;;;209.30;21.45;;;;;;;;;;5081280;28;20071;-78
2023/03/03 03:11:02;;;;;;;147.00;20.33;;;;;;;;;;5095421;28;20127;-78
2023/03/03 03:13:29;;;;;;;209.15;21.73;;;;;;;;;;5079188;28;20099;-78
2023/03/03 03:15:56;;;;;;;172.43;21.30;;;;;;;;;;5080645;28;20132;-78
2023/03/03 03:18:22;;;;;;;212.88;22.90;;;;;;;;;;5095441;28;20048;-78
2023/03/03 03:20:51;;;;;;;192.35;21.95;;;;;;;;;;5093158;28;20149;-78
2023/03/03 03:23:20;;;;;;;217.52;22.73;;;;;;;;;;5094233;28;20044;-77
2023/03/03 03:25:47;;;;;;;275.02;23.48;;;;;;;;;;5081314;28;20052;-78
2023/03/03 03:28:16;;;;;;;152.77;23.02;;;;;;;;;;5092084;28;20055;-78
2023/03/03 03:30:44;;;;;;;237.55;24.40;;;;;;;;;;5093313;28;20130;-78
2023/03/03 03:33:10;;;;;;;354.88;25.90;;;;;;;;;;5096202;28;20121;-78
2023/03/03 03:35:37;;;;;;;190.77;22.88;;;;;;;;;;5083067;28;20090;-78
2023/03/03 03:38:03;;;;;;;334.38;27.30;;;;;;;;;;5082973;28;20135;-78
2023/03/03 03:40:29;;;;;;;226.20;23.67;;;;;;;;;;5089009;28;20083;-78
2023/03/03 03:42:56;;;;;;;269.75;25.33;;;;;;;;;;5093307;28;20059;-78
2023/03/03 03:45:22;;;;;;;316.50;27.67;;;;;;;;;;5085423;28;20040;-78
2023/03/03 03:47:48;;;;;;;226.50;24.63;;;;;;;;;;5080931;28;20485;-78
2023/03/03 03:50:14;;;;;;;372.63;28.45;;;;;;;;;;5085463;28;20047;-78
2023/03/03 03:52:40;;;;;;;217.52;23.58;;;;;;;;;;5090056;28;20595;-78
2023/03/03 03:55:06;;;;;;;351.92;28.25;;;;;;;;;;5087380;28;20041;-78
2023/03/03 03:57:32;;;;;;;307.20;27.35;;;;;;;;;;5084452;28;20122;-78
2023/03/03 03:59:58;;;;;;;364.23;28.20;;;;;;;;;;5079600;28;20045;-77
2023/03/03 04:02:24;;;;;;;166.52;19.95;;;;;;;;;;5086213;28;20044;-78
2023/03/03 04:04:51;;;;;;;284.42;23.15;;;;;;;;;;5080600;28;20081;-78
2023/03/03 04:07:17;;;;;;;252.50;20.42;;;;;;;;;;5087600;28;20059;-76
2023/03/03 04:09:43;;;;;;;136.15;16.15;;;;;;;;;;5093653;28;20041;-77
2023/03/03 04:12:11;;;;;;;199.98;18.83;;;;;;;;;;5087395;28;20099;-77
2023/03/03 04:14:37;;;;;;;152.75;15.70;;;;;;;;;;5088157;28;20058;-78
2023/03/03 04:17:03;;;;;;;181.77;16.38;;;;;;;;;;5079353;28;20053;-78
2023/03/03 04:19:29;;;;;;;171.88;18.58;;;;;;;;;;5088291;28;20090;-76
2023/03/03 04:21:55;;;;;;;205.65;19.58;;;;;;;;;;5079488;28;20512;-78
2023/03/03 04:24:21;;;;;;;361.70;24.80;;;;;;;;;;5090983;28;20117;-78
2023/03/03 04:26:47;;;;;;;247.73;22.50;;;;;;;;;;5074306;28;20055;-78
2023/03/03 04:29:14;;;;;;;287.73;25.48;;;;;;;;;;5082749;28;20105;-78
2023/03/03 04:31:40;;;;;;;326.95;27.35;;;;;;;;;;5086102;28;20045;-78
2023/03/03 04:34:06;;;;;;;368.63;28.77;;;;;;;;;;5085743;28;20486;-77
2023/03/03 04:36:32;;;;;;;388.55;29.00;;;;;;;;;;5079179;28;20132;-77
2023/03/03 04:38:58;;;;;;;252.45;24.60;;;;;;;;;;5082914;28;20044;-78
2023/03/03 04:41:24;;;;;;;362.55;26.92;;;;;;;;;;5076100;28;20414;-78
2023/03/03 04:43:50;;;;;;;263.30;25.20;;;;;;;;;;5084050;28;20052;-77
2023/03/03 04:46:16;;;;;;;283.85;25.05;;;;;;;;;;5095403;28;20199;-78
2023/03/03 04:48:42;;;;;;;415.08;27.63;;;;;;;;;;5092153;28;20055;-78
2023/03/03 04:51:08;;;;;;;224.95;22.95;;;;;;;;;;5088534;28;20419;-78
2023/03/03 04:53:37;;;;;;;163.80;21.05;;;;;;;;;;5085692;28;20113;-78
2023/03/03 04:56:03;;;;;;;223.38;18.77;;;;;;;;;;5080077;28;20048;-78
2023/03/03 04:58:29;;;;;;;181.02;16.95;;;;;;;;;;5084428;28;20044;-78
2023/03/03 05:00:56;;;;;;;102.75;14.70;;;;;;;;;;5078841;28;20045;-77
2023/03/03 05:03:23;;;;;;;188.77;17.77;;;;;;;;;;5081291;28;20117;-78
2023/03/03 05:05:50;;;;;;;181.77;17.27;;;;;;;;;;5079370;28;20044;-78
2023/03/03 05:08:16;;;;;;;116.82;14.75;;;;;;;;;;5090325;28;20520;-78
2023/03/03 05:10:43;;;;;;;305.15;21.58;;;;;;;;;;5084116;28;20036;-78
2023/03/03 05:13:09;;;;;;;230.00;19.25;;;;;;;;;;5074534;28;20519;-78
2023/03/03 05:15:35;;;;;;;177.80;17.73;;;;;;;;;;5074629;28;20040;-78
2023/03/03 05:18:01;;;;;;;320.45;22.80;;;;;;;;;;5089504;28;20051;-78
2023/03/03 05:20:27;;;;;;;248.68;20.38;;;;;;;;;;5085686;28;20452;-78
2023/03/03 05:22:53;;;;;;;243.20;19.42;;;;;;;;;;5091411;28;20048;-78
2023/03/03 05:25:20;;;;;;;267.27;21.40;;;;;;;;;;5089343;28;20052;-76
2023/03/03 05:27:46;;;;;;;170.80;18.77;;;;;;;;;;5079238;28;20486;-78
2023/03/03 05:30:13;;;;;;;211.38;19.15;;;;;;;;;;5091614;28;20048;-77
2023/03/03 05:32:39;;;;;;;167.70;18.40;;;;;;;;;;5094828;28;20047;-77
2023/03/03 05:35:05;;;;;;;237.95;20.75;;;;;;;;;;5080984;28;20393;-77
2023/03/03 05:37:31;;;;;;;286.67;22.13;;;;;;;;;;5076318;28;20070;-78
2023/03/03 05:39:57;;;;;;;119.25;17.00;;;;;;;;;;5087086;28;20055;-78
2023/03/03 05:42:23;;;;;;;209.07;19.50;;;;;;;;;;5092104;28;20097;-78
2023/03/03 05:44:49;;;;;;;259.45;22.38;;;;;;;;;;5075897;28;20055;-78
2023/03/03 05:47:15;;;;;;;210.90;20.42;;;;;;;;;;5088427;28;20048;-78
2023/03/03 05:49:41;;;;;;;199.85;18.65;;;;;;;;;;5071447;28;20556;-77
2023/03/03 05:52:07;;;;;;;209.35;20.65;;;;;;;;;;5084438;28;20405;-78
2023/03/03 05:54:35;;;;;;;184.07;18.75;;;;;;;;;;5079652;28;20086;-77
2023/03/03 05:57:01;;;;;;;188.90;19.15;;;;;;;;;;5078579;28;20070;-78
2023/03/03 05:59:27;;;;;;;122.95;16.35;;;;;;;;;;5089848;28;20101;-78
2023/03/03 06:01:53;;;;;;;135.90;17.67;;;;;;;;;;5092507;28;20113;-78
2023/03/03 06:04:19;;;;;;;109.45;17.60;;;;;;;;;;5092132;28;20044;-78
2023/03/03 06:06:45;;;;;;;122.55;17.70;;;;;;;;;;5081947;28;20059;-77
2023/03/03 06:09:11;;;;;;;123.95;17.60;;;;;;;;;;5086082;28;20032;-78
2023/03/03 06:11:38;;;;;;;90.93;17.35;;;;;;;;;;5074308;28;20044;-78
2023/03/03 06:14:04;;;;;;;209.05;20.13;;;;;;;;;;5090361;28;20494;-78
2023/03/03 06:16:30;;;;;;;92.25;17.90;;;;;;;;;;5083196;28;20389;-78
2023/03/03 06:18:56;;;;;;;95.82;17.85;;;;;;;;;;5077336;28;20094;-78
2023/03/03 06:21:23;;;;;;;126.07;18.58;;;;;;;;;;5091401;28;20048;-78
2023/03/03 06:23:49;;;;;;;203.23;20.38;;;;;;;;;;5076776;28;20051;-78
2023/03/03 06:26:16;;;;;;;104.30;19.92;;;;;;;;;;5077062;28;20101;-76
2023/03/03 06:28:42;;;;;;;293.08;23.75;;;;;;;;;;5083431;28;20048;-77
2023/03/03 06:31:08;;;;;;;405.60;28.15;;;;;;;;;;5073048;28;20571;-78
2023/03/03 06:33:34;;;;;;;308.23;24.33;;;;;;;;;;5071893;28;20102;-78
2023/03/03 06:36:00;;;;;;;185.57;21.30;;;;;;;;;;5077379;28;20056;-78
2023/03/03 06:38:26;;;;;;;172.95;22.50;;;;;;;;;;5075135;28;20053;-77
2023/03/03 06:40:52;;;;;;;314.88;26.08;;;;;;;;;;5071637;28;20052;-78
2023/03/03 06:43:19;;;;;;;216.48;23.15;;;;;;;;;;5079135;28;20040;-78
2023/03/03 06:45:45;;;;;;;313.45;25.35;;;;;;;;;;5077446;28;20089;-77
2023/03/03 06:48:11;;;;;;;198.93;22.13;;;;;;;;;;5084444;28;20112;-78
2023/03/03 06:50:38;;;;;;;217.93;21.92;;;;;;;;;;5073649;28;20055;-78
2023/03/03 06:53:10;;;;;;;281.75;24.33;;;;;;;;;;5080520;28;20056;-78
2023/03/03 06:55:36;;;;;;;284.00;23.83;;;;;;;;;;5093160;28;20044;-78
2023/03/03 06:58:05;;;;;;;348.38;24.55;;;;;;;;;;5077514;28;20147;-77
2023/03/03 07:00:31;;;;;;;469.23;29.38;;;;;;;;;;5079756;28;20032;-77
2023/03/03 07:02:59;;;;;;;335.40;24.05;;;;;;;;;;5083419;28;20040;-78
2023/03/03 07:05:27;;;;;;;240.82;20.50;;;;;;;;;;5076703;28;20113;-77
2023/03/03 07:07:54;;;;;;;258.60;21.23;;;;;;;;;;5075666;28;20070;-78
2023/03/03 07:10:23;;;;;;;369.52;24.30;;;;;;;;;;5087071;28;20051;-78
2023/03/03 07:12:49;;;;;;;247.85;19.85;;;;;;;;;;5087900;28;20115;-77
2023/03/03 07:15:29;;;;;;;352.80;23.45;;;;;;;;;;5073150;28;20114;-78
2023/03/03 07:17:59;;;;;;;340.63;22.35;;;;;;;;;;5075187;28;20098;-78
2023/03/03 07:20:39;;;;;;;399.77;23.90;;;;;;;;;;5079895;28;20032;-78
2023/03/03 07:23:32;;;;;;;403.57;23.57;;;;;;;;;;5078368;28;20048;-78
2023/03/03 07:25:58;;;;;;;217.50;15.80;;;;;;;;;;5090733;28;20286;-77
2023/03/03 07:28:28;;;;;;;280.80;19.25;;;;;;;;;;5087941;28;20050;-78
2023/03/03 07:30:56;;;;;;;278.33;18.97;;;;;;;;;;5084831;28;20056;-78
2023/03/03 07:33:31;;;;;;;115.35;14.93;;;;;;;;;;5090533;28;20051;-78
2023/03/03 07:35:58;;;;;;;214.88;17.20;;;;;;;;;;5082522;28;20044;-78
2023/03/03 07:38:48;;;;;;;243.07;18.52;;;;;;;;;;5082334;28;20052;-78
2023/03/03 07:41:19;;;;;;;180.73;16.40;;;;;;;;;;5077256;28;20432;-78
2023/03/03 07:43:45;;;;;;;211.23;18.05;;;;;;;;;;5083890;28;20060;-77
2023/03/03 07:46:30;;;;;;;132.20;14.98;;;;;;;;;;5073950;28;20126;-77
2023/03/03 07:48:57;;;;;;;238.85;18.33;;;;;;;;;;5074471;28;20080;-78
2023/03/03 07:51:28;;;;;;;179.90;16.02;;;;;;;;;;5076266;28;20135;-78
2023/03/03 07:54:00;;;;;;;212.33;16.07;;;;;;;;;;5075037;28;20045;-78
2023/03/03 07:56:28;;;;;;;86.47;12.95;;;;;;;;;;5075545;28;20056;-77
2023/03/03 07:58:55;;;;;;;211.50;15.88;;;;;;;;;;5093021;28;20056;-78
2023/03/03 08:01:30;;;;;;;197.55;16.55;;;;;;;;;;5095062;28;20440;-78
2023/03/03 08:03:57;;;;;;;224.93;16.80;;;;;;;;;;5094776;28;20074;-78
2023/03/03 08:06:39;;;;;;;169.27;13.95;;;;;;;;;;5094686;28;20091;-78
2023/03/03 08:09:11;;;;;;;180.77;16.33;;;;;;;;;;5056388;28;20379;-78
2023/03/03 08:11:41;;;;;;;159.60;14.13;;;;;;;;;;5077823;28;20040;-78
2023/03/03 08:14:13;;;;;;;102.88;12.02;;;;;;;;;;5079924;28;20410;-77
2023/03/03 08:16:39;;;;;;;153.70;14.55;;;;;;;;;;5088288;28;20080;-78
2023/03/03 08:19:06;;;;;;;85.28;10.35;;;;;;;;;;5090092;28;20047;-77
2023/03/03 08:21:33;;;;;;;115.05;10.73;;;;;;;;;;5073324;28;20124;-78
2023/03/03 08:23:59;;;;;;;109.85;10.27;;;;;;;;;;5074053;28;20059;-78
2023/03/03 08:26:26;;;;;;;83.57;10.27;;;;;;;;;;5087536;28;20105;-78
2023/03/03 08:28:52;;;;;;;68.25;9.75;;;;;;;;;;5081019;28;20044;-78
2023/03/03 08:31:18;;;;;;;38.08;9.18;;;;;;;;;;5078705;28;20570;-78
2023/03/03 08:33:44;;;;;;;40.88;9.43;;;;;;;;;;5073181;28;20127;-78
2023/03/03 08:36:10;;;;;;;20.65;7.70;;;;;;;;;;5074792;28;20068;-78
2023/03/03 08:38:37;;;;;;;23.60;8.00;;;;;;;;;;5090487;28;20052;-78
2023/03/03 08:41:03;;;;;;;24.88;8.10;;;;;;;;;;5089642;28;21024;-78
2023/03/03 08:43:29;;;;;;;39.05;7.75;;;;;;;;;;5082040;28;20093;-78
2023/03/03 08:45:58;;;;;;;40.80;8.13;;;;;;;;;;5087991;28;20043;-78
2023/03/03 08:48:24;;;;;;;33.30;7.60;;;;;;;;;;5075477;28;20106;-78
2023/03/03 08:50:50;;;;;;;12.65;6.35;;;;;;;;;;5083110;28;20507;-78
2023/03/03 08:53:17;;;;;;;11.57;6.75;;;;;;;;;;5091229;28;20470;-78
2023/03/03 08:55:43;;;;;;;15.57;8.73;;;;;;;;;;5090290;28;20044;-76
2023/03/03 08:58:10;;;;;;;32.63;7.00;;;;;;;;;;5094792;28;20502;-78
2023/03/03 09:00:37;;;;;;;15.70;6.63;;;;;;;;;;5084431;28;20058;-76
2023/03/03 09:03:06;;;;;;;13.35;6.90;;;;;;;;;;5083184;28;20036;-79
2023/03/03 09:05:32;;;;;;;16.73;6.68;;;;;;;;;;5099639;28;20040;-79
2023/03/03 09:07:59;;;;;;;18.92;7.50;;;;;;;;;;5113875;28;20048;-79
2023/03/03 09:10:28;;;;;;;25.48;7.60;;;;;;;;;;5089814;28;20039;-79
2023/03/03 09:12:57;;;;;;;19.23;7.15;;;;;;;;;;5114995;28;20043;-78
2023/03/03 09:15:27;;;;;;;14.30;8.50;;;;;;;;;;5109417;28;20489;-78
2023/03/03 09:17:54;;;;;;;18.23;8.02;;;;;;;;;;5092836;28;20072;-79
2023/03/03 09:20:34;;;;;;;16.52;7.85;;;;;;;;;;5091166;28;20047;-78
2023/03/03 09:23:20;;;;;;;15.10;7.32;;;;;;;;;;5085016;28;20119;-79
2023/03/03 09:25:47;;;;;;;14.95;7.45;;;;;;;;;;5088773;28;20118;-80
2023/03/03 09:28:23;;;;;;;18.17;8.18;;;;;;;;;;5092864;28;20059;-80
2023/03/03 09:30:50;;;;;;;15.85;8.43;;;;;;;;;;5088269;28;20549;-80
2023/03/03 09:33:19;;;;;;;15.27;9.43;;;;;;;;;;5078500;28;20097;-78
2023/03/03 09:35:47;;;;;;;15.30;9.15;;;;;;;;;;5076505;28;20071;-79
2023/03/03 09:38:20;;;;;;;17.10;10.05;;;;;;;;;;5109038;28;20047;-79
2023/03/03 09:40:51;;;;;;;14.30;9.38;;;;;;;;;;5121359;28;20044;-80
2023/03/03 09:43:22;;;;;;;16.35;9.05;;;;;;;;;;5119586;28;20053;-81
2023/03/03 09:45:48;;;;;;;;;;;;;;;;;;5080597;28;20043;-79
2023/03/03 09:48:20;;;;;;;14.77;8.27;;;;;;;;;;5074944;28;19920;-81
2023/03/03 09:51:02;;;;;;;14.57;8.40;;;;;;;;;;5079990;28;20421;-79
2023/03/03 09:53:31;;;;;;;18.02;9.20;;;;;;;;;;5079012;28;20384;-79
2023/03/03 09:56:16;;;;;;;15.63;9.05;;;;;;;;;;5077062;28;20058;-79
2023/03/03 09:58:53;;;;;;;17.60;10.55;;;;;;;;;;5078544;28;20045;-79
2023/03/03 10:01:28;;;;;;;15.98;10.23;;;;;;;;;;5076594;28;20093;-78
2023/03/03 10:04:12;;;;;;;16.95;9.77;;;;;;;;;;5091522;28;20048;-79
2023/03/03 10:06:52;;;;;;;14.02;8.80;;;;;;;;;;5100871;28;20044;-79
2023/03/03 10:09:34;;;;;;;17.02;9.05;;;;;;;;;;5115016;28;20036;-79
2023/03/03 10:12:06;;;;;;;14.43;9.02;;;;;;;;;;5097518;28;20066;-79
2023/03/03 10:15:04;;;;;;;14.65;8.85;;;;;;;;;;5094337;28;20093;-79
2023/03/03 10:17:30;;;;;;;12.80;7.88;;;;;;;;;;5096702;28;20050;-79
2023/03/03 10:19:59;;;;;;;13.35;7.78;;;;;;;;;;5091209;28;20127;-79
2023/03/03 10:22:26;;;;;;;14.15;8.15;;;;;;;;;;5075836;28;20052;-79
2023/03/03 10:25:00;;;;;;;17.58;8.40;;;;;;;;;;5091617;28;20075;-79
2023/03/03 10:27:44;;;;;;;15.43;8.32;;;;;;;;;;5090749;28;20052;-79
2023/03/03 10:30:17;;;;;;;14.98;9.30;;;;;;;;;;5065920;28;20041;-80
2023/03/03 10:32:48;;;;;;;15.68;9.20;;;;;;;;;;5085686;28;20502;-79
2023/03/03 10:35:14;;;;;;;13.80;7.97;;;;;;;;;;5090818;28;20082;-79
2023/03/03 10:37:52;;;;;;;14.88;8.68;;;;;;;;;;5077219;28;20048;-80
2023/03/03 10:40:24;;;;;;;15.35;8.52;;;;;;;;;;5074514;28;20056;-79
2023/03/03 10:42:56;;;;;;;14.10;8.38;;;;;;;;;;5090610;28;20049;-80
2023/03/03 10:45:25;;;;;;;15.45;9.50;;;;;;;;;;5087618;28;20052;-79
2023/03/03 10:48:06;;;;;;;17.05;9.10;;;;;;;;;;5083042;28;20056;-79
2023/03/03 10:50:37;;;;;;;14.52;9.57;;;;;;;;;;5081821;28;20044;-78
2023/03/03 10:53:06;;;;;;;18.10;9.80;;;;;;;;;;5075701;28;20059;-79
2023/03/03 10:55:38;;;;;;;16.25;10.20;;;;;;;;;;5078124;28;20040;-79
2023/03/03 10:58:04;;;;;;;;;;;;;;;;;;5088501;28;20142;-79
2023/03/03 11:00:30;;;;;;;13.85;8.55;;;;;;;;;;5092618;28;19924;-79
2023/03/03 11:02:59;;;;;;;15.40;8.85;;;;;;;;;;5076941;28;20044;-79
2023/03/03 11:05:40;;;;;;;15.55;9.75;;;;;;;;;;5073011;28;20395;-80
2023/03/03 11:08:14;;;;;;;13.93;8.80;;;;;;;;;;5077371;28;20434;-79
2023/03/03 11:10:52;;;;;;;13.18;8.68;;;;;;;;;;5083915;28;20086;-79
2023/03/03 11:13:37;;;;;;;16.55;8.23;;;;;;;;;;5092407;28;20128;-80
2023/03/03 11:16:21;;;;;;;12.98;7.55;;;;;;;;;;5074025;28;20093;-79
2023/03/03 11:19:06;;;;;;;13.35;7.85;;;;;;;;;;5087593;28;20048;-79
2023/03/03 11:21:41;;;;;;;14.70;7.10;;;;;;;;;;5094055;28;20051;-80
2023/03/03 11:24:28;;;;;;;15.02;8.10;;;;;;;;;;5096576;28;20127;-80
2023/03/03 11:27:11;;;;;;;15.38;7.95;;;;;;;;;;5096433;28;20056;-80
2023/03/03 11:29:37;;;;;;;17.17;8.48;;;;;;;;;;5078756;28;20032;-80
2023/03/03 11:32:19;;;;;;;14.02;8.13;;;;;;;;;;5085380;28;20056;-79
2023/03/03 11:34:50;;;;;;;15.35;7.85;;;;;;;;;;5092654;28;20170;-80
2023/03/03 11:37:36;;;;;;;13.07;7.63;;;;;;;;;;5094098;28;20497;-79
2023/03/03 11:40:12;;;;;;;15.43;7.72;;;;;;;;;;5075065;28;20060;-80
2023/03/03 11:42:47;;;;;;;11.00;6.78;;;;;;;;;;5075045;28;20368;-80
2023/03/03 11:45:22;;;;;;;13.63;6.30;;;;;;;;;;5075355;28;20402;-80
2023/03/03 11:47:58;;;;;;;10.18;5.57;;;;;;;;;;5076025;28;20057;-80
2023/03/03 11:50:46;;;;;;;10.30;5.93;;;;;;;;;;5076224;28;20558;-80
2023/03/03 11:53:18;;;;;;;10.95;5.40;;;;;;;;;;5077097;28;20445;-79
2023/03/03 11:55:49;;;;;;;12.82;5.18;;;;;;;;;;5076806;28;20494;-80
2023/03/03 11:58:24;;;;;;;10.55;5.38;;;;;;;;;;5083614;28;20115;-80
2023/03/03 12:00:53;;;;;;;9.77;4.30;;;;;;;;;;5079505;28;20400;-79
2023/03/03 12:03:31;;;;;;;9.52;4.40;;;;;;;;;;5092150;28;20405;-79
2023/03/03 12:06:08;;;;;;;10.35;4.55;;;;;;;;;;5101132;28;20105;-79
2023/03/03 12:08:40;;;;;;;8.23;3.85;;;;;;;;;;5099248;28;20051;-80
2023/03/03 12:11:18;;;;;;;8.80;4.10;;;;;;;;;;5086640;28;20514;-79
2023/03/03 12:13:50;;;;;;;11.50;4.35;;;;;;;;;;5093036;28;20095;-80
2023/03/03 12:16:29;;;;;;;7.00;3.03;;;;;;;;;;5102792;28;20036;-80
2023/03/03 12:19:13;;;;;;;9.13;3.47;;;;;;;;;;5098817;28;20044;-80
2023/03/03 12:21:55;;;;;;;6.88;2.80;;;;;;;;;;5082580;28;20654;-80
2023/03/03 12:24:29;;;;;;;9.38;3.00;;;;;;;;;;5076051;28;20075;-80
2023/03/03 12:27:04;;;;;;;6.45;3.00;;;;;;;;;;5084752;28;20131;-78
2023/03/03 12:29:45;;;;;;;6.38;2.80;;;;;;;;;;5086907;28;20401;-80
2023/03/03 12:32:29;;;;;;;6.03;2.38;;;;;;;;;;5095566;28;20063;-80
2023/03/03 12:35:05;;;;;;;7.95;2.58;;;;;;;;;;5087044;28;20486;-80
2023/03/03 12:37:31;;;;;;;8.63;2.80;;;;;;;;;;5076727;28;20049;-81
2023/03/03 12:40:07;;;;;;;8.13;2.72;;;;;;;;;;5084147;28;20147;-80
2023/03/03 12:42:36;;;;;;;6.38;2.67;;;;;;;;;;5083154;28;20498;-80
2023/03/03 12:45:21;;;;;;;6.97;2.72;;;;;;;;;;5087314;28;20138;-79
2023/03/03 12:47:51;;;;;;;8.45;3.00;;;;;;;;;;5079175;28;20388;-80
2023/03/03 12:50:34;;;;;;;6.30;2.63;;;;;;;;;;5076455;28;20055;-80
2023/03/03 12:53:10;;;;;;;6.43;2.10;;;;;;;;;;5074897;28;20113;-80
2023/03/03 12:55:44;;;;;;;6.78;2.10;;;;;;;;;;5082720;28;20055;-80
2023/03/03 12:58:16;;;;;;;6.90;1.95;;;;;;;;;;5099088;28;20055;-80
2023/03/03 13:00:54;;;;;;;6.10;1.70;;;;;;;;;;5095387;28;20048;-80
2023/03/03 13:03:20;;;;;;;7.57;2.42;;;;;;;;;;5087207;28;20515;-80
2023/03/03 13:05:55;;;;;;;6.72;1.70;;;;;;;;;;5088821;28;20397;-80
2023/03/03 13:08:30;;;;;;;6.55;1.75;;;;;;;;;;5094039;28;20486;-80
2023/03/03 13:11:32;;;;;;;7.45;1.80;;;;;;;;;;5084794;28;20051;-80
2023/03/03 13:13:58;;;;;;;;;;;;;;;;;;5095402;28;20158;-80
2023/03/03 13:16:30;;;;;;;4.50;1.35;;;;;;;;;;5096190;28;19928;-80
2023/03/03 13:19:10;;;;;;;5.43;1.70;;;;;;;;;;5093697;28;20052;-80
2023/03/03 13:21:41;;;;;;;5.75;1.50;;;;;;;;;;5101154;28;20545;-80
2023/03/03 13:24:07;;;;;;;6.72;1.63;;;;;;;;;;5090140;28;20059;-79
2023/03/03 13:26:33;;;;;;;9.57;1.60;;;;;;;;;;5090298;28;20121;-79
2023/03/03 13:29:09;;;;;;;7.97;1.75;;;;;;;;;;5093882;28;20106;-79
2023/03/03 13:31:40;;;;;;;7.68;1.73;;;;;;;;;;5067760;28;20067;-80
2023/03/03 13:34:11;;;;;;;5.72;1.48;;;;;;;;;;5071067;28;20086;-80
2023/03/03 13:36:52;;;;;;;5.32;1.88;;;;;;;;;;5086162;28;20406;-84
2023/03/03 13:39:27;;;;;;;5.53;1.60;;;;;;;;;;5088728;28;20445;-81
2023/03/03 13:42:04;;;;;;;9.90;1.80;;;;;;;;;;5077542;28;20083;-80
2023/03/03 13:44:34;;;;;;;7.75;1.45;;;;;;;;;;5071308;28;20044;-81
2023/03/03 13:47:16;;;;;;;6.88;1.42;;;;;;;;;;5083130;28;20048;-80
2023/03/03 13:49:41;;;;;;;;;;;;;;;;;;5094108;28;20037;-80
2023/03/03 13:52:09;;;;;;;9.45;1.33;;;;;;;;;;5078048;28;19942;-80
2023/03/03 13:54:42;;;;;;;5.63;1.20;;;;;;;;;;5077006;28;20051;-80
2023/03/03 13:57:27;;;;;;;4.47;1.10;;;;;;;;;;5077309;28;20048;-80
2023/03/03 13:59:59;;;;;;;3.95;1.15;;;;;;;;;;5097044;28;20032;-80
2023/03/03 14:02:44;;;;;;;5.55;1.25;;;;;;;;;;5080488;28;20486;-80
2023/03/03 14:05:23;;;;;;;5.72;1.00;;;;;;;;;;5091650;28;20513;-80
2023/03/03 14:08:00;;;;;;;5.40;0.95;;;;;;;;;;5086021;28;20056;-80
2023/03/03 14:10:31;;;;;;;6.53;1.40;;;;;;;;;;5089472;28;20165;-80
2023/03/03 14:13:00;;;;;;;5.28;1.20;;;;;;;;;;5092466;28;20063;-80
2023/03/03 14:15:35;;;;;;;7.55;1.40;;;;;;;;;;5090313;28;20136;-80
2023/03/03 14:18:20;;;;;;;5.50;1.00;;;;;;;;;;5092488;28;20147;-80
2023/03/03 14:20:51;;;;;;;5.53;1.10;;;;;;;;;;5094422;28;20056;-80
2023/03/03 14:23:38;;;;;;;5.65;1.10;;;;;;;;;;5080247;28;20044;-80
2023/03/03 14:26:04;;;;;;;8.77;1.38;;;;;;;;;;5098068;28;20101;-80
2023/03/03 14:28:42;;;;;;;8.57;1.40;;;;;;;;;;5092812;28;20040;-81
2023/03/03 14:31:18;;;;;;;8.15;1.30;;;;;;;;;;5082547;28;20499;-79
2023/03/03 14:33:55;;;;;;;6.22;1.27;;;;;;;;;;5085648;28;20051;-79
2023/03/03 14:36:26;;;;;;;7.43;1.10;;;;;;;;;;5087415;28;20040;-79